createdAt,value
2023-05-10T00:00:30.833Z,51.92
2023-05-10T00:03:15.806Z,53.89
2023-05-10T00:06:02.745Z,53.60
2023-05-10T00:08:48.698Z,54.81
2023-05-10T00:11:28.095Z,56.73
2023-05-10T00:16:56.469Z,55.48
2023-05-10T00:19:39.868Z,54.68
2023-05-10T00:22:39.845Z,54.06
2023-05-10T00:25:30.183Z,54.72
2023-05-10T00:28:22.567Z,53.97
2023-05-10T00:31:09.145Z,55.65
2023-05-10T00:34:08.422Z,55.29
2023-05-10T00:37:15.512Z,54.03
2023-05-10T00:40:01.641Z,54.96
2023-05-10T00:42:42.562Z,54.83
2023-05-10T00:45:31.112Z,56.74
2023-05-10T00:48:36.397Z,56.27
2023-05-10T00:51:48.331Z,56.52
2023-05-10T00:58:06.980Z,57.23
2023-05-10T01:00:52.969Z,57.48
2023-05-10T01:03:49.736Z,57.07
2023-05-10T01:07:01.929Z,58.96
2023-05-10T01:09:48.824Z,58.46
2023-05-10T01:12:49.392Z,59.29
2023-05-10T01:15:44.539Z,57.39
2023-05-10T01:18:34.918Z,56.69
2023-05-10T01:21:36.420Z,56.31
2023-05-10T01:24:43.373Z,56.07
2023-05-10T01:28:06.699Z,55.69
2023-05-10T01:30:52.474Z,56.10
2023-05-10T01:33:58.817Z,55.43
2023-05-10T01:36:41.154Z,55.72
2023-05-10T01:39:47.850Z,55.74
2023-05-10T01:46:23.774Z,55.89
2023-05-10T01:49:40.544Z,55.84
2023-05-10T01:52:29.169Z,55.57
2023-05-10T01:55:08.448Z,55.91
2023-05-10T01:58:03.126Z,57.29
2023-05-10T02:03:39.438Z,56.85
2023-05-10T02:07:16.223Z,56.10
2023-05-10T02:10:14.868Z,56.74
2023-05-10T02:13:15.495Z,57.04
2023-05-10T02:16:07.653Z,56.68
2023-05-10T02:18:58.901Z,57.09
2023-05-10T02:21:55.924Z,57.42
2023-05-10T02:24:58.816Z,57.40
2023-05-10T02:28:07.640Z,57.72
2023-05-10T02:30:57.711Z,58.28
2023-05-10T02:33:48.609Z,58.54
2023-05-10T02:39:35.733Z,58.15
2023-05-10T02:42:19.367Z,57.80
2023-05-10T02:45:38.590Z,57.82
2023-05-10T02:48:31.998Z,57.06
2023-05-10T02:51:51.736Z,58.27
2023-05-10T02:54:59.199Z,57.46
2023-05-10T02:58:00.216Z,57.37
2023-05-10T03:00:53.510Z,57.43
2023-05-10T03:03:46.520Z,57.26
2023-05-10T03:06:32.934Z,56.97
2023-05-10T03:09:33.732Z,56.79
2023-05-10T03:12:32.615Z,56.68
2023-05-10T03:15:43.373Z,56.06
2023-05-10T03:19:12.067Z,56.35
2023-05-10T03:22:06.120Z,57.17
2023-05-10T03:25:22.818Z,56.94
2023-05-10T03:28:21.273Z,56.82
2023-05-10T03:31:11.449Z,56.99
2023-05-10T03:34:27.224Z,57.42
2023-05-10T03:37:20.231Z,57.93
2023-05-10T03:40:25.097Z,57.09
2023-05-10T03:44:06.155Z,57.53
2023-05-10T03:47:08.202Z,57.06
2023-05-10T03:50:14.290Z,56.39
2023-05-10T03:53:06.923Z,56.71
2023-05-10T03:56:05.314Z,57.27
2023-05-10T03:58:48.921Z,57.09
2023-05-10T04:01:31.399Z,56.55
2023-05-10T04:04:38.460Z,57.02
2023-05-10T04:07:37.196Z,57.17
2023-05-10T04:13:52.235Z,56.61
2023-05-10T04:16:38.289Z,56.83
2023-05-10T04:19:31.498Z,56.89
2023-05-10T04:22:22.533Z,56.00
2023-05-10T04:25:25.567Z,54.94
2023-05-10T04:28:27.135Z,53.94
2023-05-10T04:31:40.520Z,52.87
2023-05-10T04:37:30.908Z,50.44
2023-05-10T04:40:25.621Z,50.35
2023-05-10T04:46:28.443Z,49.77
2023-05-10T04:49:24.003Z,50.96
2023-05-10T04:52:09.132Z,49.60
2023-05-10T04:54:50.388Z,49.30
2023-05-10T04:57:37.100Z,48.88
2023-05-10T05:00:24.984Z,49.10
2023-05-10T05:06:36.110Z,50.25
2023-05-10T05:09:20.376Z,50.11
2023-05-10T05:12:23.228Z,48.57
2023-05-10T05:15:09.637Z,50.15
2023-05-10T05:17:59.326Z,50.50
2023-05-10T05:20:50.287Z,50.43
2023-05-10T05:23:53.065Z,49.09
2023-05-10T05:26:44.490Z,49.72
2023-05-10T05:29:32.857Z,51.30
2023-05-10T05:32:16.561Z,50.16
2023-05-10T05:34:57.371Z,53.40
2023-05-10T05:37:46.511Z,51.52
2023-05-10T05:40:35.276Z,51.22
2023-05-10T05:43:18.080Z,51.36
2023-05-10T05:45:53.167Z,49.84
2023-05-10T05:48:31.052Z,49.44
2023-05-10T05:51:10.991Z,49.52
2023-05-10T05:53:46.285Z,48.74
2023-05-10T05:56:26.187Z,48.38
2023-05-10T05:59:09.599Z,49.08
2023-05-10T06:01:48.276Z,49.04
2023-05-10T06:04:22.286Z,49.12
2023-05-10T06:07:28.836Z,50.13
2023-05-10T06:10:40.120Z,51.14
2023-05-10T06:13:12.728Z,50.18
2023-05-10T06:16:28.178Z,50.22
2023-05-10T06:19:44.662Z,50.60
2023-05-10T06:22:32.217Z,50.45
2023-05-10T06:25:06.300Z,49.65
2023-05-10T06:27:51.104Z,49.89
2023-05-10T06:30:30.750Z,48.76
2023-05-10T06:33:06.073Z,49.46
2023-05-10T06:36:00.307Z,48.95
2023-05-10T06:38:50.050Z,48.60
2023-05-10T06:41:52.037Z,49.06
2023-05-10T06:44:56.437Z,47.76
2023-05-10T06:47:43.981Z,48.09
2023-05-10T06:50:44.902Z,48.96
2023-05-10T06:54:09.719Z,48.79
2023-05-10T06:57:30.549Z,48.13
2023-05-10T07:00:01.441Z,47.92
2023-05-10T07:02:41.672Z,46.89
2023-05-10T07:05:19.767Z,46.22
2023-05-10T07:08:04.455Z,46.97
2023-05-10T07:10:52.207Z,47.15
2023-05-10T07:13:29.812Z,46.31
2023-05-10T07:16:30.536Z,47.04
2023-05-10T07:19:56.011Z,47.23
2023-05-10T07:32:15.306Z,46.22
2023-05-10T07:35:01.311Z,46.95
2023-05-10T07:37:44.525Z,45.90
2023-05-10T07:40:19.975Z,46.17
2023-05-10T07:43:02.601Z,45.93
2023-05-10T07:48:54.349Z,44.92
2023-05-10T07:51:33.166Z,44.53
2023-05-10T07:54:16.524Z,44.89
2023-05-10T07:56:50.748Z,43.94
2023-05-10T07:59:22.192Z,43.54
2023-05-10T08:02:15.878Z,44.86
2023-05-10T08:04:57.283Z,44.83
2023-05-10T08:07:44.802Z,45.07
2023-05-10T08:10:24.375Z,45.19
2023-05-10T08:13:09.420Z,46.31
2023-05-10T08:15:58.956Z,46.21
2023-05-10T08:19:14.268Z,46.41
2023-05-10T08:21:52.869Z,44.25
2023-05-10T08:24:32.238Z,44.83
2023-05-10T08:27:03.132Z,44.29
2023-05-10T08:29:55.081Z,44.66
2023-05-10T08:33:01.602Z,43.73
2023-05-10T08:35:49.131Z,43.42
2023-05-10T08:38:28.926Z,45.33
2023-05-10T08:41:18.731Z,44.41
2023-05-10T08:44:02.787Z,43.29
2023-05-10T08:46:36.887Z,44.18
2023-05-10T08:49:55.885Z,44.14
2023-05-10T08:52:29.807Z,42.46
2023-05-10T08:55:00.192Z,41.60
2023-05-10T08:57:29.763Z,41.82
2023-05-10T09:00:06.102Z,40.86
2023-05-10T09:10:08.552Z,41.76
2023-05-10T09:12:44.178Z,42.02
2023-05-10T09:15:31.792Z,42.54
2023-05-10T09:18:12.024Z,41.64
2023-05-10T09:20:51.824Z,40.75
2023-05-10T09:23:27.725Z,40.38
2023-05-10T09:26:20.077Z,39.71
2023-05-10T09:29:05.448Z,39.55
2023-05-10T09:32:01.557Z,39.87
2023-05-10T09:34:46.171Z,41.57
2023-05-10T09:37:39.132Z,41.42
2023-05-10T09:40:38.999Z,40.56
2023-05-10T09:43:25.593Z,40.44
2023-05-10T09:46:07.418Z,40.36
2023-05-10T09:48:49.168Z,40.98
2023-05-10T09:51:28.160Z,40.35
2023-05-10T09:54:17.307Z,40.52
2023-05-10T09:56:45.608Z,41.26
2023-05-10T09:59:15.989Z,40.58
2023-05-10T10:01:52.420Z,41.30
2023-05-10T10:04:25.304Z,40.47
2023-05-10T10:07:04.846Z,40.12
2023-05-10T10:09:44.600Z,40.11
2023-05-10T10:12:27.984Z,39.12
2023-05-10T10:15:19.231Z,40.05
2023-05-10T10:18:10.657Z,39.87
2023-05-10T10:20:48.274Z,40.88
2023-05-10T10:23:29.939Z,40.84
2023-05-10T10:26:11.121Z,40.84
2023-05-10T10:29:24.528Z,40.23
2023-05-10T10:32:41.883Z,41.34
2023-05-10T10:35:30.827Z,39.80
2023-05-10T10:38:28.999Z,39.49
2023-05-10T10:41:33.527Z,39.70
2023-05-10T10:44:40.890Z,39.77
2023-05-10T10:48:06.110Z,39.82
2023-05-10T10:53:55.435Z,38.32
2023-05-10T10:56:37.677Z,37.26
2023-05-10T10:59:09.828Z,38.52
2023-05-10T11:01:53.393Z,38.82
2023-05-10T11:04:38.263Z,38.30
2023-05-10T11:07:21.071Z,38.15
2023-05-10T11:13:22.121Z,37.64
2023-05-10T11:16:00.926Z,37.64
2023-05-10T11:18:34.195Z,37.71
2023-05-10T11:21:16.266Z,38.05
2023-05-10T11:24:02.901Z,37.45
2023-05-10T11:26:53.991Z,38.22
2023-05-10T11:29:38.981Z,38.74
2023-05-10T11:32:16.430Z,37.48
2023-05-10T11:35:02.899Z,36.92
2023-05-10T11:40:36.787Z,37.87
2023-05-10T11:43:12.532Z,38.72
2023-05-10T11:45:49.544Z,38.07
2023-05-10T11:48:25.801Z,37.58
2023-05-10T11:51:04.265Z,37.52
2023-05-10T11:53:44.717Z,37.52
2023-05-10T11:56:28.491Z,36.84
2023-05-10T11:58:59.428Z,37.50
2023-05-10T12:01:28.902Z,37.94
2023-05-10T12:04:06.229Z,37.82
2023-05-10T12:06:43.166Z,38.24
2023-05-10T12:09:14.264Z,37.03
2023-05-10T12:11:52.971Z,37.08
2023-05-10T12:17:20.099Z,36.32
2023-05-10T12:20:29.510Z,36.76
2023-05-10T12:23:22.846Z,36.30
2023-05-10T12:26:10.896Z,37.21
2023-05-10T12:28:43.685Z,35.95
2023-05-10T12:31:37.821Z,36.83
2023-05-10T12:34:41.747Z,37.36
2023-05-10T12:37:28.535Z,36.99
2023-05-10T12:40:14.520Z,36.33
2023-05-10T12:43:01.908Z,37.14
2023-05-10T12:47:03.127Z,37.85
2023-05-10T12:49:52.195Z,37.11
2023-05-10T12:52:54.270Z,37.65
2023-05-10T12:55:49.716Z,37.10
2023-05-10T12:58:45.629Z,37.13
2023-05-10T13:05:58.076Z,38.37
2023-05-10T13:09:16.275Z,37.32
2023-05-10T13:12:21.321Z,37.41
2023-05-10T13:16:23.761Z,38.88
2023-05-10T13:23:32.630Z,36.51
2023-05-10T13:26:32.568Z,36.98
2023-05-10T13:29:36.251Z,36.16
2023-05-10T13:32:57.953Z,35.95
2023-05-10T13:36:07.278Z,33.48
2023-05-10T13:38:55.296Z,33.20
2023-05-10T13:42:08.983Z,35.00
2023-05-10T13:45:06.321Z,33.66
2023-05-10T13:48:16.342Z,34.29
2023-05-10T13:51:37.480Z,34.72
2023-05-10T13:54:35.483Z,33.35
2023-05-10T14:01:15.539Z,32.92
2023-05-10T14:03:46.905Z,32.69
2023-05-10T14:06:39.981Z,33.55
2023-05-10T14:09:53.932Z,33.43
2023-05-10T14:12:30.338Z,33.52
2023-05-10T14:15:16.410Z,33.38
2023-05-10T14:18:38.576Z,33.45
2023-05-10T14:21:45.216Z,33.78
2023-05-10T14:24:29.737Z,31.29
2023-05-10T14:27:38.864Z,31.59
2023-05-10T14:30:16.244Z,30.65
2023-05-10T14:33:09.800Z,30.58
2023-05-10T14:35:52.503Z,30.52
2023-05-10T14:39:17.729Z,29.85
2023-05-10T14:42:59.843Z,29.13
2023-05-10T14:46:14.031Z,29.79
2023-05-10T14:49:02.475Z,28.87
2023-05-10T14:52:13.288Z,28.31
2023-05-10T14:59:13.748Z,29.35
2023-05-10T15:02:29.997Z,28.90
2023-05-10T15:05:54.267Z,28.30
2023-05-10T15:09:02.060Z,29.51
2023-05-10T15:12:15.999Z,30.01
2023-05-10T15:15:13.723Z,30.81
2023-05-10T15:17:53.794Z,31.81
2023-05-10T15:21:36.740Z,31.35
2023-05-10T15:24:44.996Z,30.99
2023-05-10T15:28:04.782Z,31.00
2023-05-10T15:31:20.021Z,31.71
2023-05-10T15:38:10.222Z,31.92
2023-05-10T15:41:02.338Z,32.25
2023-05-10T15:44:22.054Z,32.68
2023-05-10T15:51:57.748Z,32.38
2023-05-10T15:55:07.030Z,33.35
2023-05-10T15:58:32.694Z,32.88
2023-05-10T16:01:29.977Z,32.35
2023-05-10T16:04:34.418Z,32.71
2023-05-10T16:10:47.716Z,32.71
2023-05-10T16:13:38.912Z,32.54
2023-05-10T16:16:38.247Z,33.45
2023-05-10T16:19:44.206Z,33.25
2023-05-10T16:22:22.253Z,32.50
2023-05-10T16:25:15.409Z,32.21
2023-05-10T16:28:55.786Z,32.54
2023-05-10T16:32:21.153Z,32.24
2023-05-10T16:35:11.924Z,32.48
2023-05-10T16:38:01.513Z,32.30
2023-05-10T16:40:43.551Z,32.40
2023-05-10T16:43:24.079Z,32.53
2023-05-10T16:46:05.622Z,32.47
2023-05-10T16:49:00.477Z,32.98
2023-05-10T16:51:41.876Z,33.33
2023-05-10T16:54:24.227Z,33.37
2023-05-10T16:57:20.483Z,33.51
2023-05-10T17:00:37.236Z,33.54
2023-05-10T17:04:15.361Z,33.87
2023-05-10T17:07:28.653Z,33.83
2023-05-10T17:10:35.093Z,33.51
2023-05-10T17:16:15.841Z,34.21
2023-05-10T17:19:07.375Z,35.47
2023-05-10T17:22:09.136Z,36.12
2023-05-10T17:25:08.399Z,37.09
2023-05-10T17:28:32.640Z,36.37
2023-05-10T17:37:50.403Z,37.46
2023-05-10T17:40:49.038Z,37.74
2023-05-10T17:44:03.991Z,37.66
2023-05-10T17:51:21.571Z,37.55
2023-05-10T17:54:54.641Z,37.51
2023-05-10T18:02:25.970Z,37.65
2023-05-10T18:12:30.412Z,39.91
2023-05-10T18:23:43.062Z,39.83
2023-05-10T18:27:23.871Z,39.55
2023-05-10T18:30:48.457Z,39.92
2023-05-10T18:42:06.513Z,40.86
2023-05-10T18:46:12.358Z,40.40
2023-05-10T19:11:49.514Z,40.15
2023-05-10T19:17:51.894Z,40.47
2023-05-10T19:21:37.931Z,40.42
2023-05-10T19:25:15.963Z,40.11
2023-05-10T19:32:36.804Z,40.11
2023-05-10T19:35:41.922Z,40.13
2023-05-10T19:38:52.354Z,40.65
2023-05-10T19:41:58.458Z,39.64
2023-05-10T19:44:51.852Z,39.63
2023-05-10T19:47:41.493Z,39.01
2023-05-10T19:50:54.163Z,39.70
2023-05-10T19:54:11.186Z,39.52
2023-05-10T20:03:59.209Z,38.82
2023-05-10T20:11:13.946Z,39.30
2023-05-10T20:14:25.116Z,39.65
2023-05-10T20:17:14.430Z,40.12
2023-05-10T20:21:08.833Z,40.04
2023-05-10T20:27:23.520Z,40.51
2023-05-10T20:33:48.049Z,39.47
2023-05-10T20:37:25.388Z,39.81
2023-05-10T20:40:18.327Z,40.01
2023-05-10T20:46:44.461Z,40.73
2023-05-10T20:53:53.746Z,40.22
2023-05-10T20:57:33.406Z,40.41
2023-05-10T21:01:20.554Z,39.61
2023-05-10T21:04:49.314Z,40.26
2023-05-10T21:12:12.875Z,40.45
2023-05-10T21:19:29.273Z,41.67
2023-05-10T21:22:27.156Z,41.81
2023-05-10T21:26:15.567Z,41.93
2023-05-10T21:46:22.137Z,41.41
2023-05-10T21:53:29.734Z,40.69
2023-05-10T21:56:20.217Z,41.43
2023-05-10T22:03:50.869Z,41.02
2023-05-10T22:11:11.243Z,40.55
2023-05-10T22:15:15.570Z,40.11
2023-05-10T22:22:00.004Z,40.84
2023-05-10T22:29:10.871Z,40.54
2023-05-10T22:35:26.666Z,40.47
2023-05-10T22:38:59.763Z,39.55
2023-05-10T22:41:56.958Z,39.90
2023-05-10T22:45:12.395Z,40.94
2023-05-10T22:51:53.602Z,40.31
2023-05-10T22:54:37.412Z,40.34
2023-05-10T22:57:35.418Z,40.24
2023-05-10T23:00:42.289Z,40.69
2023-05-10T23:03:36.879Z,42.30
2023-05-10T23:06:33.558Z,42.06
2023-05-10T23:12:35.202Z,41.43
2023-05-10T23:15:19.451Z,41.30
2023-05-10T23:18:09.946Z,41.28
2023-05-10T23:21:23.103Z,41.60
2023-05-10T23:24:28.129Z,41.54
2023-05-10T23:30:30.826Z,41.63
2023-05-10T23:33:42.733Z,41.60
2023-05-10T23:36:37.496Z,41.68
2023-05-10T23:39:48.287Z,41.23
2023-05-10T23:43:22.258Z,41.95
2023-05-10T23:46:17.791Z,40.95
2023-05-10T23:49:07.277Z,41.99
2023-05-10T23:52:06.794Z,42.05
2023-05-10T23:54:59.236Z,42.02
2023-05-10T23:57:48.518Z,42.71
